Time;durP1;ratioP1;P1;durP2;ratioP2;P2;SDS_P1;SDS_P2;PMS_P1;PMS_P2;Temp;Humidity;BMP_temperature;BMP_pressure;BME280_temperature;BME280_humidity;BME280_pressure;Samples;Min_cycle;Max_cycle;Signal;HPM_P1;HPM_P2
2021/03/05 00:00:46;;;;;;;9.93;3.55;;;;;;;8.22;77.48;101800.97;5071296;28;20046;-86
2021/03/05 00:03:12;;;;;;;10.68;3.50;;;;;;;8.34;77.52;101806.59;5071488;28;20544;-86
2021/03/05 00:05:39;;;;;;;12.20;3.30;;;;;;;8.25;79.22;101806.91;5074812;28;20107;-86
2021/03/05 00:08:06;;;;;;;11.70;3.33;;;;;;;8.25;78.59;101785.97;5075070;28;20083;-86
2021/03/05 00:10:34;;;;;;;12.73;3.97;;;;;;;8.26;78.54;101798.16;5074644;28;20060;-85
2021/03/05 00:13:00;;;;;;;13.38;3.95;;;;;;;8.22;77.94;101801.81;5074856;28;20104;-85
2021/03/05 00:15:30;;;;;;;10.20;2.97;;;;;;;8.30;78.25;101798.91;5073587;28;20104;-84
2021/03/05 00:17:56;;;;;;;14.63;3.80;;;;;;;8.33;78.79;101804.91;5074662;28;20048;-86
2021/03/05 00:20:25;;;;;;;14.35;3.60;;;;;;;8.12;78.57;101805.66;5074787;28;20028;-85
2021/03/05 00:22:50;;;;;;;15.93;3.53;;;;;;;8.18;78.09;101801.97;5073284;28;20047;-86
2021/03/05 00:25:16;;;;;;;13.82;3.10;;;;;;;8.24;77.92;101813.06;5074761;28;20016;-85
2021/03/05 00:27:41;;;;;;;13.07;3.25;;;;;;;8.25;77.70;101821.75;5074465;28;20068;-85
2021/03/05 00:30:08;;;;;;;9.57;2.80;;;;;;;8.23;76.59;101827.03;5075105;28;20020;-85
2021/03/05 00:32:34;;;;;;;6.22;2.50;;;;;;;8.14;76.50;101817.78;5073305;28;20017;-85
2021/03/05 00:35:00;;;;;;;11.45;2.75;;;;;;;8.28;76.75;101827.75;5074545;28;20471;-86
2021/03/05 00:37:26;;;;;;;10.93;2.40;;;;;;;8.22;76.48;101827.97;5074411;28;20058;-86
2021/03/05 00:39:51;;;;;;;16.05;2.83;;;;;;;8.19;76.63;101833.28;5074154;28;20394;-86
2021/03/05 00:42:16;;;;;;;6.68;2.13;;;;;;;8.28;77.14;101832.97;5074162;28;20063;-86
2021/03/05 00:44:42;;;;;;;11.45;2.42;;;;;;;8.13;76.77;101830.91;5072924;28;20033;-85
2021/03/05 00:47:07;;;;;;;7.15;2.25;;;;;;;8.03;75.95;101842.59;5073448;28;20493;-85
2021/03/05 00:49:32;;;;;;;6.57;2.10;;;;;;;7.95;75.04;101843.69;5073793;28;20020;-85
2021/03/05 00:51:58;;;;;;;11.38;2.30;;;;;;;8.13;74.20;101838.75;5072839;28;20020;-85
2021/03/05 00:54:23;;;;;;;11.25;3.10;;;;;;;8.04;73.65;101841.69;5070675;28;20486;-85
2021/03/05 00:56:48;;;;;;;6.25;1.67;;;;;;;8.06;73.77;101847.72;5071383;28;20024;-85
2021/03/05 00:59:14;;;;;;;9.85;2.08;;;;;;;7.91;74.68;101846.47;5070572;28;20024;-85
2021/03/05 01:01:39;;;;;;;13.15;1.85;;;;;;;7.84;73.07;101838.00;5072824;28;20116;-85
2021/03/05 01:04:05;;;;;;;6.80;1.50;;;;;;;7.97;72.89;101848.88;5071883;28;20033;-85
2021/03/05 01:06:30;;;;;;;16.75;1.98;;;;;;;8.00;72.22;101838.31;5072632;28;20059;-85
2021/03/05 01:08:56;;;;;;;12.25;2.17;;;;;;;8.05;73.08;101844.25;5072743;28;20028;-85
2021/03/05 01:11:21;;;;;;;11.82;2.75;;;;;;;7.98;73.62;101840.16;5072577;28;20060;-85
2021/03/05 01:13:47;;;;;;;9.25;2.20;;;;;;;7.88;72.23;101849.22;5072851;28;20036;-84
2021/03/05 01:16:12;;;;;;;11.27;2.28;;;;;;;8.07;72.73;101841.56;5072554;28;20106;-85
2021/03/05 01:18:38;;;;;;;13.32;3.20;;;;;;;7.94;73.63;101854.22;5072802;28;20036;-85
2021/03/05 01:21:04;;;;;;;18.15;2.28;;;;;;;7.97;72.73;101853.25;5073648;28;20033;-84
2021/03/05 01:23:30;;;;;;;7.15;1.67;;;;;;;7.99;72.75;101857.53;5070276;28;20032;-84
2021/03/05 01:25:56;;;;;;;11.13;1.95;;;;;;;7.79;72.10;101844.28;5086644;28;20028;-84
2021/03/05 01:28:21;;;;;;;13.50;2.60;;;;;;;7.80;72.86;101856.44;5069078;28;20036;-84
2021/03/05 01:30:47;;;;;;;11.38;2.00;;;;;;;7.98;70.95;101854.97;5071983;28;20055;-84
2021/03/05 01:33:12;;;;;;;9.77;1.92;;;;;;;7.92;71.54;101856.91;5072218;28;20383;-84
2021/03/05 01:35:38;;;;;;;8.60;1.95;;;;;;;7.93;71.94;101861.19;5071197;28;20024;-84
2021/03/05 01:38:03;;;;;;;7.00;1.58;;;;;;;7.88;72.39;101865.75;5073230;28;20028;-85
2021/03/05 01:40:33;;;;;;;15.05;2.60;;;;;;;7.70;72.31;101863.72;5071712;28;20024;-84
2021/03/05 01:42:58;;;;;;;13.52;3.08;;;;;;;7.64;72.06;101859.56;5072143;28;20051;-85
2021/03/05 01:45:28;;;;;;;12.07;2.13;;;;;;;7.82;71.96;101868.56;5071841;28;20032;-84
2021/03/05 01:47:57;;;;;;;9.80;2.17;;;;;;;7.82;72.17;101855.50;5071923;28;20090;-84
2021/03/05 01:50:26;;;;;;;13.25;1.70;;;;;;;7.79;71.32;101866.03;5072531;28;20029;-84
2021/03/05 01:52:57;;;;;;;9.40;1.58;;;;;;;7.73;71.22;101863.63;5072154;28;20072;-84
2021/03/05 01:55:23;;;;;;;7.83;1.80;;;;;;;7.59;71.29;101860.63;5071983;28;20493;-84
2021/03/05 01:57:48;;;;;;;12.07;2.05;;;;;;;7.47;72.13;101860.09;5069764;28;20033;-84
2021/03/05 02:00:17;;;;;;;10.35;1.60;;;;;;;7.67;71.39;101874.31;5067853;28;20051;-84
2021/03/05 02:02:42;;;;;;;11.77;1.90;;;;;;;7.62;71.27;101873.56;5071847;28;20077;-84
2021/03/05 02:05:08;;;;;;;10.90;1.80;;;;;;;7.68;69.46;101865.53;5071340;28;20032;-84
2021/03/05 02:07:34;;;;;;;14.05;2.33;;;;;;;7.49;69.90;101863.53;5070266;28;20115;-84
2021/03/05 02:09:59;;;;;;;15.18;2.70;;;;;;;7.52;69.75;101849.50;5071714;28;20099;-84
2021/03/05 02:12:24;;;;;;;12.27;2.05;;;;;;;7.48;69.06;101848.72;5071368;28;20107;-84
2021/03/05 02:14:50;;;;;;;12.65;2.83;;;;;;;7.55;68.93;101857.25;5071685;28;20058;-84
2021/03/05 02:17:22;;;;;;;12.68;2.75;;;;;;;7.43;68.41;101863.72;5071917;28;20027;-84
2021/03/05 02:20:06;;;;;;;10.80;2.38;;;;;;;7.49;69.25;101862.69;5070776;28;20028;-84
2021/03/05 02:22:51;;;;;;;16.13;2.08;;;;;;;7.42;68.57;101858.53;5071271;28;20096;-84
2021/03/05 02:25:38;;;;;;;9.63;2.00;;;;;;;7.47;68.08;101867.94;5068800;28;20094;-84
2021/03/05 02:28:29;;;;;;;5.35;1.40;;;;;;;7.57;68.67;101870.28;5067801;28;20043;-84
2021/03/05 02:31:09;;;;;;;7.30;1.77;;;;;;;7.48;67.51;101871.41;5072523;28;20024;-84
2021/03/05 02:33:48;;;;;;;16.83;2.15;;;;;;;7.40;67.16;101863.81;5071579;28;20033;-84
2021/03/05 02:36:19;;;;;;;14.70;2.10;;;;;;;7.43;66.67;101863.72;5072215;28;20024;-84
2021/03/05 02:38:58;;;;;;;9.38;1.50;;;;;;;7.41;68.77;101854.22;5071416;28;20036;-84
2021/03/05 02:41:26;;;;;;;8.75;1.60;;;;;;;7.38;67.32;101870.84;5072091;28;20028;-84
2021/03/05 02:43:55;;;;;;;10.80;1.48;;;;;;;7.14;66.88;101857.63;5069019;28;20097;-84
2021/03/05 02:46:21;;;;;;;7.53;1.80;;;;;;;7.13;67.79;101871.59;5071536;28;20516;-84
2021/03/05 02:48:47;;;;;;;6.60;1.77;;;;;;;7.15;67.97;101864.56;5071418;28;20467;-84
2021/03/05 02:51:13;;;;;;;9.40;1.77;;;;;;;7.12;67.24;101864.66;5071902;28;20029;-84
2021/03/05 02:53:41;;;;;;;8.30;1.83;;;;;;;7.17;65.78;101866.25;5070061;28;20107;-84
2021/03/05 02:56:13;;;;;;;7.60;2.35;;;;;;;7.10;67.81;101866.44;5071189;28;20041;-84
2021/03/05 02:58:43;;;;;;;9.70;1.35;;;;;;;7.13;65.71;101862.91;5070738;28;20036;-84
2021/03/05 03:01:11;;;;;;;10.73;2.03;;;;;;;7.12;66.46;101859.44;5070503;28;20444;-84
2021/03/05 03:03:38;;;;;;;8.10;1.65;;;;;;;7.15;66.69;101869.78;5071848;28;20052;-84
2021/03/05 03:06:07;;;;;;;12.02;1.70;;;;;;;7.09;66.85;101863.88;5071343;28;20024;-84
2021/03/05 03:08:33;;;;;;;12.50;2.08;;;;;;;6.90;66.43;101868.81;5071487;28;20039;-84
2021/03/05 03:11:02;;;;;;;11.10;1.90;;;;;;;6.94;65.93;101860.00;5070211;28;20025;-84
2021/03/05 03:13:27;;;;;;;8.07;1.55;;;;;;;6.94;67.62;101860.00;5071747;28;20032;-84
2021/03/05 03:15:54;;;;;;;10.55;1.95;;;;;;;6.86;67.87;101875.03;5071717;28;20032;-84
2021/03/05 03:18:20;;;;;;;10.30;1.67;;;;;;;6.78;68.91;101874.41;5071747;28;20410;-84
2021/03/05 03:20:46;;;;;;;7.38;1.65;;;;;;;6.79;69.10;101870.88;5070940;28;20025;-84
2021/03/05 03:23:12;;;;;;;6.28;1.90;;;;;;;6.66;69.95;101863.41;5071789;28;20017;-84
2021/03/05 03:25:38;;;;;;;9.27;1.73;;;;;;;6.67;70.55;101877.28;5069028;28;20036;-84
2021/03/05 03:28:04;;;;;;;3.85;1.30;;;;;;;6.65;71.32;101879.94;5068282;28;21438;-84
2021/03/05 03:30:29;;;;;;;8.45;1.83;;;;;;;6.62;70.71;101869.59;5070689;28;20024;-84
2021/03/05 03:32:56;;;;;;;8.77;1.77;;;;;;;6.55;69.58;101874.13;5070931;28;20037;-85
2021/03/05 03:35:22;;;;;;;11.27;1.90;;;;;;;6.51;71.72;101872.50;5070236;28;20409;-84
2021/03/05 03:37:49;;;;;;;13.50;2.15;;;;;;;6.52;71.65;101878.59;5070685;28;20046;-85
2021/03/05 03:40:20;;;;;;;11.25;1.65;;;;;;;6.68;70.21;101882.47;5073932;28;20390;-85
2021/03/05 03:42:46;;;;;;;9.70;1.95;;;;;;;6.70;69.31;101872.84;5075520;28;20020;-85
2021/03/05 03:45:14;;;;;;;8.18;1.92;;;;;;;6.67;70.06;101883.34;5072603;28;20032;-84
2021/03/05 03:47:40;;;;;;;15.35;2.53;;;;;;;6.73;70.17;101885.81;5073939;28;20108;-84
2021/03/05 03:50:12;;;;;;;11.52;1.90;;;;;;;6.70;69.35;101888.50;5074329;28;20086;-85
2021/03/05 03:52:51;;;;;;;10.70;2.13;;;;;;;6.88;69.03;101889.75;5074844;28;20028;-84
2021/03/05 03:55:16;;;;;;;13.40;2.03;;;;;;;6.88;66.54;101881.06;5072892;28;20039;-85
2021/03/05 03:57:45;;;;;;;7.70;1.98;;;;;;;6.90;68.50;101879.25;5074198;28;20046;-84
2021/03/05 04:00:13;;;;;;;7.88;2.15;;;;;;;6.67;68.45;101880.75;5071453;28;20040;-85
2021/03/05 04:02:39;;;;;;;8.88;1.52;;;;;;;6.80;66.12;101885.66;5075021;28;20027;-85
2021/03/05 04:05:11;;;;;;;15.07;2.00;;;;;;;6.98;67.03;101892.94;5074392;28;20021;-84
2021/03/05 04:07:37;;;;;;;11.15;2.05;;;;;;;6.74;68.00;101890.13;5075093;28;20482;-85
2021/03/05 04:10:04;;;;;;;11.23;1.73;;;;;;;6.92;64.53;101888.75;5074068;28;20086;-84
2021/03/05 04:12:31;;;;;;;5.80;1.40;;;;;;;7.00;66.29;101880.69;5073857;28;20027;-85
2021/03/05 04:14:57;;;;;;;12.95;1.92;;;;;;;7.01;66.31;101898.09;5074799;28;20062;-84
2021/03/05 04:17:22;;;;;;;9.40;2.00;;;;;;;7.05;66.48;101893.59;5073864;28;20032;-85
2021/03/05 04:19:48;;;;;;;12.80;2.35;;;;;;;6.99;64.42;101893.78;5074678;28;20035;-84
2021/03/05 04:22:17;;;;;;;7.70;1.63;;;;;;;7.12;64.46;101903.81;5072369;28;20017;-84
2021/03/05 04:24:43;;;;;;;6.75;1.52;;;;;;;7.11;65.84;101889.06;5071405;28;20036;-84
2021/03/05 04:27:10;;;;;;;6.50;1.73;;;;;;;7.15;66.12;101901.13;5074663;28;20037;-84
2021/03/05 04:29:36;;;;;;;8.23;1.50;;;;;;;7.26;66.46;101892.13;5073079;28;20036;-84
2021/03/05 04:32:03;;;;;;;11.95;1.88;;;;;;;7.20;66.32;101897.53;5072668;22;20354;-86
2021/03/05 04:34:28;;;;;;;12.30;1.65;;;;;;;7.22;64.62;101906.19;5068547;28;20032;-86
2021/03/05 04:36:53;;;;;;;12.10;2.20;;;;;;;7.17;65.94;101914.16;5074379;28;20039;-86
2021/03/05 04:39:19;;;;;;;9.48;1.67;;;;;;;7.26;65.59;101908.66;5072846;28;20032;-86
2021/03/05 04:41:45;;;;;;;10.57;1.50;;;;;;;7.31;65.31;101909.38;5071948;28;20103;-86
2021/03/05 04:44:10;;;;;;;10.55;2.55;;;;;;;7.24;65.65;101914.81;5054017;28;20360;-86
2021/03/05 04:46:35;;;;;;;7.85;2.10;;;;;;;7.34;64.59;101911.03;5053765;28;20113;-86
2021/03/05 04:49:01;;;;;;;9.98;1.67;;;;;;;7.29;64.75;101918.16;5073957;28;20466;-86
2021/03/05 04:51:26;;;;;;;8.98;1.63;;;;;;;7.09;64.45;101923.94;5073955;28;20024;-86
2021/03/05 04:53:52;;;;;;;10.93;1.50;;;;;;;7.12;63.27;101924.72;5071052;28;20036;-86
2021/03/05 04:56:17;;;;;;;8.48;1.90;;;;;;;7.28;64.75;101929.50;5074382;28;20131;-86
2021/03/05 04:58:42;;;;;;;10.73;1.58;;;;;;;7.23;63.83;101919.19;5067393;28;20524;-86
2021/03/05 05:01:08;;;;;;;7.72;1.40;;;;;;;7.35;63.95;101917.97;5060540;28;20025;-86
2021/03/05 05:03:33;;;;;;;7.47;1.20;;;;;;;7.40;64.47;101926.53;5067696;28;20033;-86
2021/03/05 05:05:58;;;;;;;12.43;1.58;;;;;;;7.31;64.73;101913.75;5054433;28;20028;-86
2021/03/05 05:08:24;;;;;;;6.15;1.77;;;;;;;7.29;63.13;101926.84;5051811;28;20115;-86
2021/03/05 05:10:49;;;;;;;7.45;1.30;;;;;;;7.26;64.07;101929.53;5073662;28;20029;-86
2021/03/05 05:13:15;;;;;;;5.63;1.92;;;;;;;7.33;65.21;101919.78;5069052;28;20020;-86
2021/03/05 05:15:40;;;;;;;10.88;1.58;;;;;;;7.40;64.88;101925.66;5073749;28;20060;-86
2021/03/05 05:18:06;;;;;;;5.78;1.73;;;;;;;7.28;64.04;101932.97;5072034;28;20043;-86
2021/03/05 05:20:31;;;;;;;6.88;1.67;;;;;;;7.32;65.49;101936.34;5066252;28;20043;-86
2021/03/05 05:22:57;;;;;;;5.50;1.30;;;;;;;7.45;67.49;101932.47;5070777;28;20063;-86
2021/03/05 05:25:23;;;;;;;9.35;1.40;;;;;;;7.52;65.38;101930.50;5073465;28;20029;-87
2021/03/05 05:27:48;;;;;;;7.40;1.77;;;;;;;7.40;63.51;101931.75;5072207;28;20126;-86
2021/03/05 05:30:14;;;;;;;11.13;1.40;;;;;;;7.39;66.20;101934.44;5073823;28;20028;-86
2021/03/05 05:32:39;;;;;;;6.82;1.13;;;;;;;7.41;65.23;101928.25;5071329;28;20031;-86
2021/03/05 05:35:05;;;;;;;12.05;1.70;;;;;;;7.46;64.50;101944.63;5073418;28;20471;-86
2021/03/05 05:37:31;;;;;;;6.40;1.40;;;;;;;7.31;65.64;101947.72;5072362;28;20036;-86
2021/03/05 05:39:56;;;;;;;6.90;1.58;;;;;;;7.44;64.80;101938.59;5066189;28;20372;-86
2021/03/05 05:42:21;;;;;;;7.60;1.67;;;;;;;7.49;65.82;101930.63;5053056;28;20029;-87
2021/03/05 05:44:49;;;;;;;5.68;1.67;;;;;;;7.39;66.26;101932.66;5070450;28;20115;-86
2021/03/05 05:47:16;;;;;;;11.07;1.92;;;;;;;7.52;67.03;101936.63;5071431;28;20031;-86
2021/03/05 05:49:45;;;;;;;11.65;1.23;;;;;;;7.40;66.51;101934.34;5073166;28;20029;-86
2021/03/05 05:52:19;;;;;;;8.77;2.05;;;;;;;7.51;65.87;101945.34;5071835;28;20048;-87
2021/03/05 05:54:45;;;;;;;7.75;1.80;;;;;;;7.46;67.08;101943.78;5064986;28;20116;-87
2021/03/05 05:57:11;;;;;;;4.60;1.63;;;;;;;7.56;66.42;101945.19;5071776;28;20096;-87
2021/03/05 05:59:38;;;;;;;5.30;2.42;;;;;;;7.58;66.62;101947.78;5071960;28;20027;-86
2021/03/05 06:02:04;;;;;;;7.88;1.70;;;;;;;7.54;66.05;101947.88;5068703;28;20040;-87
2021/03/05 06:04:31;;;;;;;7.10;1.33;;;;;;;7.52;67.40;101957.53;5054867;28;20501;-86
2021/03/05 06:06:57;;;;;;;10.48;2.40;;;;;;;7.49;67.87;101951.53;5053388;28;20029;-86
2021/03/05 06:09:22;;;;;;;10.45;2.65;;;;;;;7.51;67.62;101955.81;5056834;28;20033;-86
2021/03/05 06:11:48;;;;;;;12.90;1.88;;;;;;;7.61;68.10;101966.84;5054007;28;20818;-86
2021/03/05 06:14:13;;;;;;;6.90;1.63;;;;;;;7.55;67.46;101965.25;5072530;28;20020;-86
2021/03/05 06:17:11;;;;;;;11.85;2.03;;;;;;;7.48;65.49;101965.50;5071410;28;20024;-86
2021/03/05 06:19:37;;;;;;;8.35;1.60;;;;;;;7.42;66.58;101950.84;5020788;28;20036;-86
2021/03/05 06:22:17;;;;;;;14.98;2.20;;;;;;;7.27;67.37;101967.00;5072433;28;20024;-86
2021/03/05 06:24:43;;;;;;;7.93;2.58;;;;;;;7.51;66.52;101968.03;5065929;28;20484;-86
2021/03/05 06:27:10;;;;;;;7.25;1.60;;;;;;;7.59;67.26;101963.41;5071070;28;20033;-86
2021/03/05 06:29:42;;;;;;;9.25;1.48;;;;;;;7.25;66.82;101972.25;5072480;28;20494;-86
2021/03/05 06:32:09;;;;;;;11.35;2.50;;;;;;;7.47;67.38;101975.09;5062822;28;20032;-87
2021/03/05 06:34:52;;;;;;;14.88;2.58;;;;;;;7.45;66.76;101976.91;5072436;28;20024;-86
2021/03/05 06:37:20;;;;;;;12.07;1.95;;;;;;;7.41;66.81;101980.50;5053042;28;20358;-86
2021/03/05 06:40:07;;;;;;;37.30;6.10;;;;;;;7.35;67.72;101985.91;5053546;28;20379;-86
2021/03/05 06:42:51;;;;;;;13.52;2.13;;;;;;;7.42;66.68;101982.22;5060076;28;20020;-86
2021/03/05 06:45:19;;;;;;;8.23;1.83;;;;;;;7.50;67.72;101992.44;5072005;28;20078;-86
2021/03/05 06:48:08;;;;;;;10.23;2.13;;;;;;;7.52;67.18;101983.66;5071282;28;20162;-86
2021/03/05 06:50:36;;;;;;;14.68;1.67;;;;;;;7.47;67.08;101996.00;5070959;28;20028;-86
2021/03/05 06:53:19;;;;;;;5.93;1.63;;;;;;;7.37;67.97;101999.78;5071904;28;20021;-86
2021/03/05 06:55:44;;;;;;;7.45;2.03;;;;;;;7.27;68.02;101999.19;5065281;28;20082;-86
2021/03/05 06:58:10;;;;;;;8.23;2.65;;;;;;;7.39;67.57;102005.84;5050780;28;20033;-86
2021/03/05 07:00:35;;;;;;;19.38;2.72;;;;;;;7.39;66.27;102003.22;5053750;28;20055;-86
2021/03/05 07:03:01;;;;;;;10.68;1.80;;;;;;;7.60;67.49;102006.94;5072218;28;20031;-86
2021/03/05 07:06:05;;;;;;;10.05;2.08;;;;;;;7.53;68.16;102008.88;5052592;28;20052;-86
2021/03/05 07:08:48;;;;;;;7.32;1.52;;;;;;;7.64;67.67;102005.09;4996410;28;20062;-86
2021/03/05 07:11:41;;;;;;;10.73;1.85;;;;;;;7.52;66.63;102012.41;4990035;28;20030;-86
2021/03/05 07:14:09;;;;;;;5.55;1.25;;;;;;;7.71;66.95;102012.72;5017656;28;20503;-86
2021/03/05 07:16:48;;;;;;;6.57;1.27;;;;;;;7.74;66.27;102007.41;5032679;28;20112;-86
2021/03/05 07:19:19;;;;;;;12.70;2.45;;;;;;;7.78;65.24;102016.00;5071735;28;20035;-85
2021/03/05 07:21:47;;;;;;;15.80;2.83;;;;;;;7.72;65.87;102019.66;5045481;28;20120;-86
2021/03/05 07:24:21;;;;;;;12.77;1.70;;;;;;;7.87;64.80;102007.88;5050706;28;20025;-87
2021/03/05 07:26:56;;;;;;;8.05;1.63;;;;;;;7.78;65.72;102020.38;5033023;28;20029;-86
2021/03/05 07:29:33;;;;;;;8.82;3.05;;;;;;;7.99;65.91;102013.63;5050734;28;20075;-88
2021/03/05 07:32:02;;;;;;;18.55;1.92;;;;;;;7.81;65.57;102010.66;5073591;22;20036;-88
2021/03/05 07:34:30;;;;;;;5.65;1.45;;;;;;;7.85;64.87;102027.13;5053592;28;20025;-88
2021/03/05 07:36:58;;;;;;;7.35;1.40;;;;;;;7.86;64.43;102023.59;5053743;28;20032;-87
2021/03/05 07:39:45;;;;;;;10.57;2.42;;;;;;;8.05;64.67;102032.59;5070054;28;20036;-86
2021/03/05 07:42:11;;;;;;;5.13;1.20;;;;;;;8.10;64.02;102037.69;5064721;28;20044;-87
2021/03/05 07:44:37;;;;;;;9.70;1.70;;;;;;;7.93;65.12;102033.81;5071109;28;20020;-87
2021/03/05 07:47:11;;;;;;;4.50;1.38;;;;;;;8.35;64.12;102037.75;5070822;28;20058;-87
2021/03/05 07:49:37;;;;;;;12.50;1.67;;;;;;;8.60;61.65;102045.69;5052003;28;20024;-88
2021/03/05 07:52:04;;;;;;;8.77;1.58;;;;;;;9.38;61.31;102042.09;5052424;28;20033;-88
2021/03/05 07:54:39;;;;;;;3.85;1.17;;;;;;;10.24;58.75;102051.91;5056366;28;20020;-89
2021/03/05 07:57:04;;;;;;;4.35;1.58;;;;;;;10.71;57.95;102048.28;5061110;28;20036;-88
2021/03/05 07:59:42;;;;;;;12.45;2.85;;;;;;;11.78;55.60;102047.88;5047668;28;20024;-88
2021/03/05 08:02:11;;;;;;;11.43;1.73;;;;;;;11.97;51.60;102047.91;5071513;28;20027;-89
2021/03/05 08:05:00;;;;;;;8.73;1.48;;;;;;;12.83;52.16;102046.28;5050558;28;20033;-90
2021/03/05 08:07:28;;;;;;;7.05;1.80;;;;;;;13.24;50.49;102053.00;5066281;28;20029;-86
2021/03/05 08:09:56;;;;;;;10.07;2.20;;;;;;;12.79;50.42;102049.16;5046279;28;20056;-91
2021/03/05 08:12:25;;;;;;;9.23;2.00;;;;;;;13.37;50.39;102066.41;5065780;28;20061;-89
2021/03/05 08:14:51;;;;;;;6.93;1.55;;;;;;;13.08;50.58;102061.69;5064484;28;20064;-94
2021/03/05 08:19:47;;;;;;;7.55;1.33;;;;;;;11.84;51.83;102068.66;5101544;28;20036;-96
2021/03/05 08:22:13;;;;;;;12.07;1.35;;;;;;;11.86;52.49;102071.22;5722449;22;20123;-91
2021/03/05 08:24:40;;;;;;;7.20;1.20;;;;;;;12.89;51.51;102068.84;5069836;28;20021;-91
2021/03/05 08:27:07;;;;;;;7.47;1.50;;;;;;;14.11;48.02;102076.44;5070927;28;20029;-93
2021/03/05 08:30:03;;;;;;;11.18;1.45;;;;;;;13.89;47.70;102072.34;5080263;28;20028;-95
2021/03/05 08:32:31;;;;;;;7.63;1.50;;;;;;;12.88;48.33;102075.91;5053772;28;20024;-92
2021/03/05 08:35:29;;;;;;;8.60;1.35;;;;;;;12.05;49.82;102076.50;5047160;28;20355;-92
2021/03/05 08:37:58;;;;;;;7.68;1.83;;;;;;;12.01;51.92;102082.84;5063728;28;20037;-90
2021/03/05 08:40:25;;;;;;;10.13;1.70;;;;;;;11.72;53.64;102074.50;5045215;28;20032;-90
2021/03/05 08:42:58;;;;;;;6.00;1.17;;;;;;;11.78;53.25;102087.38;5039834;28;20082;-90
2021/03/05 08:45:30;;;;;;;4.97;1.45;;;;;;;11.12;52.93;102090.31;5082185;28;20051;-93
2021/03/05 08:47:58;;;;;;;9.00;1.90;;;;;;;10.53;54.04;102081.41;5070879;28;20025;-92
2021/03/05 08:50:30;;;;;;;7.03;1.70;;;;;;;10.76;54.70;102085.69;5042971;28;20025;-94
2021/03/05 08:52:58;;;;;;;10.27;2.03;;;;;;;10.82;56.31;102082.84;5053950;28;20032;-93
2021/03/05 08:55:23;;;;;;;6.50;1.67;;;;;;;10.49;56.37;102080.69;5058160;28;20107;-95
2021/03/05 08:57:52;;;;;;;7.68;1.67;;;;;;;10.64;57.82;102100.22;5059394;28;20028;-94
2021/03/05 09:00:19;;;;;;;8.93;2.40;;;;;;;10.53;57.85;102102.44;5058067;28;20393;-94
2021/03/05 09:02:48;;;;;;;9.13;1.70;;;;;;;10.14;58.92;102113.56;5055975;28;20021;-95
2021/03/05 09:05:24;;;;;;;9.88;2.58;;;;;;;10.37;57.90;102106.56;5051415;28;20025;-93
2021/03/05 09:07:52;;;;;;;7.68;2.13;;;;;;;10.00;57.60;102106.22;5058249;28;20044;-92
2021/03/05 09:10:19;;;;;;;8.48;1.75;;;;;;;10.12;59.88;102115.38;5057779;28;20040;-94
2021/03/05 09:12:59;;;;;;;11.63;2.28;;;;;;;10.34;59.26;102110.19;5057052;28;20020;-93
2021/03/05 09:15:29;;;;;;;6.38;1.60;;;;;;;10.49;58.15;102124.47;5072864;28;20032;-93
2021/03/05 09:17:56;;;;;;;10.48;1.48;;;;;;;10.54;58.62;102119.88;5055121;28;20021;-94
2021/03/05 09:20:21;;;;;;;9.65;1.88;;;;;;;10.34;58.93;102125.94;5046549;28;20463;-95
2021/03/05 09:22:47;;;;;;;14.10;2.28;;;;;;;10.44;58.00;102108.88;5063263;28;20033;-94
2021/03/05 09:25:13;;;;;;;8.70;1.70;;;;;;;10.75;57.77;102114.69;5061440;28;20467;-94
2021/03/05 09:27:41;;;;;;;9.70;1.77;;;;;;;10.36;56.97;102116.22;5060310;28;20101;-95
2021/03/05 09:30:21;;;;;;;7.93;2.22;;;;;;;10.60;57.57;102124.03;5061701;28;20111;-94
2021/03/05 09:32:55;;;;;;;4.25;2.28;;;;;;;10.80;57.30;102125.84;5064499;28;20021;-95
2021/03/05 09:35:25;;;;;;;7.63;1.52;;;;;;;10.26;56.16;102136.69;5063374;28;20025;-93
2021/03/05 09:37:51;;;;;;;6.55;1.33;;;;;;;10.19;55.07;102140.50;5059322;28;20032;-92
2021/03/05 09:40:17;;;;;;;7.43;1.48;;;;;;;10.45;55.14;102125.53;5066521;28;20033;-91
2021/03/05 09:42:42;;;;;;;8.30;1.60;;;;;;;10.44;55.72;102143.03;5064791;28;20042;-90
2021/03/05 09:45:08;;;;;;;7.22;1.30;;;;;;;9.93;56.86;102138.84;5077197;28;20064;-90
2021/03/05 09:47:49;;;;;;;9.15;1.88;;;;;;;10.18;55.64;102144.03;5075009;28;20060;-90
2021/03/05 09:50:21;;;;;;;9.43;2.03;;;;;;;10.19;58.05;102145.75;5058025;28;20475;-90
2021/03/05 09:52:47;;;;;;;9.50;1.90;;;;;;;10.03;57.98;102134.09;5075283;28;20066;-90
2021/03/05 09:55:30;;;;;;;9.32;2.15;;;;;;;9.92;56.75;102134.53;5076224;28;20029;-90
2021/03/05 09:58:09;;;;;;;12.25;2.63;;;;;;;9.82;58.56;102144.50;5056002;28;20048;-90
2021/03/05 10:00:34;;;;;;;8.68;1.45;;;;;;;9.40;57.55;102133.78;5057369;28;20025;-90
2021/03/05 10:03:04;;;;;;;9.52;1.42;;;;;;;9.64;57.76;102151.28;5057637;28;20020;-89
2021/03/05 10:05:31;;;;;;;6.55;2.00;;;;;;;9.75;58.01;102155.28;5062194;28;20046;-91
2021/03/05 10:07:56;;;;;;;5.28;1.15;;;;;;;9.91;58.16;102145.91;5061515;28;20026;-91
2021/03/05 10:10:22;;;;;;;9.20;1.85;;;;;;;9.80;59.33;102163.84;5078134;28;20028;-90
2021/03/05 10:12:54;;;;;;;17.10;2.40;;;;;;;10.04;58.09;102156.81;5075892;28;20439;-90
2021/03/05 10:15:20;;;;;;;14.65;3.28;;;;;;;9.25;58.50;102158.78;5057302;28;20029;-92
2021/03/05 10:17:46;;;;;;;6.68;1.58;;;;;;;9.72;55.24;102161.50;5076140;28;20502;-91
2021/03/05 10:20:12;;;;;;;9.02;1.98;;;;;;;9.39;55.78;102147.81;5074351;28;20028;-92
2021/03/05 10:22:37;;;;;;;4.85;1.60;;;;;;;9.79;56.38;102157.72;5055732;28;20027;-92
2021/03/05 10:25:04;;;;;;;6.95;1.48;;;;;;;9.79;53.14;102157.72;5057127;28;20025;-93
2021/03/05 10:27:40;;;;;;;3.92;1.13;;;;;;;9.60;53.36;102156.69;5058256;28;20056;-92
2021/03/05 10:30:07;;;;;;;9.07;2.05;;;;;;;9.44;55.63;102178.22;5055658;28;20052;-93
2021/03/05 10:32:39;;;;;;;7.32;1.50;;;;;;;9.51;55.06;102169.19;5056829;28;20136;-92
2021/03/05 10:35:11;;;;;;;8.68;1.55;;;;;;;9.51;55.74;102181.47;5074000;28;20020;-91
2021/03/05 10:37:41;;;;;;;8.80;1.52;;;;;;;8.89;57.85;102175.69;5067193;28;20028;-94
2021/03/05 10:40:14;;;;;;;7.60;1.20;;;;;;;9.05;57.33;102168.16;5055465;28;20119;-92
2021/03/05 10:42:39;;;;;;;4.82;1.45;;;;;;;9.16;57.44;102185.28;5056580;28;20094;-93
2021/03/05 10:45:06;;;;;;;11.60;1.90;;;;;;;9.12;58.54;102187.16;5056578;28;20033;-92
2021/03/05 10:47:33;;;;;;;5.78;1.30;;;;;;;9.01;57.62;102174.41;5066955;28;20449;-94
2021/03/05 10:49:59;;;;;;;4.50;1.52;;;;;;;8.98;58.42;102190.22;5057413;28;20060;-94
2021/03/05 10:52:26;;;;;;;6.97;1.30;;;;;;;9.19;57.32;102178.19;5053944;28;20162;-93
2021/03/05 10:54:51;;;;;;;9.25;1.65;;;;;;;9.45;56.84;102189.53;5038080;28;20029;-94
2021/03/05 10:57:19;;;;;;;9.57;1.90;;;;;;;9.78;55.54;102182.25;5048800;28;20023;-94
2021/03/05 10:59:48;;;;;;;6.53;1.50;;;;;;;9.57;55.14;102188.25;5061663;28;20068;-94
2021/03/05 11:02:15;;;;;;;6.47;1.83;;;;;;;9.72;56.49;102193.81;5064019;28;20004;-96
2021/03/05 11:04:42;;;;;;;10.60;1.70;;;;;;;9.21;56.85;102186.00;5048823;28;20017;-96
2021/03/05 11:07:08;;;;;;;3.42;1.23;;;;;;;9.69;56.02;102193.91;5070150;28;20044;-96
2021/03/05 11:09:35;;;;;;;6.15;1.30;;;;;;;9.94;55.48;102198.28;5074455;28;20039;-96
2021/03/05 11:12:01;;;;;;;10.88;1.65;;;;;;;9.86;51.54;102198.56;5054528;28;20040;-95
2021/03/05 11:14:29;;;;;;;8.63;1.17;;;;;;;9.66;50.62;102196.66;5073470;28;20035;-96
2021/03/05 11:27:35;;;;;;;11.43;1.50;;;;;;;9.26;50.22;102171.84;6149185;22;20077;-96
2021/03/05 11:30:04;;;;;;;6.93;1.38;;;;;;;9.69;50.51;102180.78;5058466;28;20013;-85
2021/03/05 11:32:34;;;;;;;13.90;1.48;;;;;;;9.17;51.09;102174.75;5454831;22;20904;-96
2021/03/05 11:37:34;;;;;;;4.45;1.65;;;;;;;9.99;50.95;102203.34;5831253;22;20045;-95
2021/03/05 11:42:41;;;;;;;9.35;1.70;;;;;;;9.89;50.45;102190.59;5473679;22;20028;-96
2021/03/05 11:45:07;;;;;;;7.05;1.30;;;;;;;9.99;50.88;102190.25;5069275;28;20032;-96
2021/03/05 11:47:33;;;;;;;5.63;1.60;;;;;;;9.93;51.14;102228.94;5921823;22;20540;-96
2021/03/05 11:49:59;;;;;;;6.47;1.40;;;;;;;9.75;51.21;102192.00;5123173;22;20049;-95
2021/03/05 11:57:44;;;;;;;7.60;2.00;;;;;;;9.98;50.66;102197.25;5854320;22;20269;-96
2021/03/05 12:02:48;;;;;;;4.75;1.45;;;;;;;10.67;50.58;102193.81;4975300;22;20037;-96